sensor_id;sensor_type;location;lat;lon;timestamp;P1;durP1;ratioP1;P2;durP2;ratioP2
63499;SDS011;49654;51.142;14.924;2023-04-22T00:01:55;26.92;;;20.13;;
63499;SDS011;49654;51.142;14.924;2023-04-22T00:04:21;25.40;;;18.55;;
63499;SDS011;49654;51.142;14.924;2023-04-22T00:06:48;24.65;;;19.25;;
63499;SDS011;49654;51.142;14.924;2023-04-22T00:09:15;23.83;;;18.95;;
63499;SDS011;49654;51.142;14.924;2023-04-22T00:11:44;26.35;;;20.13;;
63499;SDS011;49654;51.142;14.924;2023-04-22T00:14:11;27.52;;;19.80;;
63499;SDS011;49654;51.142;14.924;2023-04-22T00:16:38;28.15;;;21.60;;
63499;SDS011;49654;51.142;14.924;2023-04-22T00:19:05;26.98;;;21.20;;
63499;SDS011;49654;51.142;14.924;2023-04-22T00:21:32;27.05;;;21.02;;
63499;SDS011;49654;51.142;14.924;2023-04-22T00:23:58;25.33;;;20.92;;
63499;SDS011;49654;51.142;14.924;2023-04-22T00:26:26;26.95;;;19.77;;
63499;SDS011;49654;51.142;14.924;2023-04-22T00:28:54;26.60;;;20.48;;
63499;SDS011;49654;51.142;14.924;2023-04-22T00:31:21;26.23;;;20.30;;
63499;SDS011;49654;51.142;14.924;2023-04-22T00:33:48;28.25;;;20.73;;
63499;SDS011;49654;51.142;14.924;2023-04-22T00:36:15;27.85;;;20.77;;
63499;SDS011;49654;51.142;14.924;2023-04-22T00:38:43;28.10;;;20.13;;
63499;SDS011;49654;51.142;14.924;2023-04-22T00:41:14;27.50;;;20.55;;
63499;SDS011;49654;51.142;14.924;2023-04-22T00:43:41;25.05;;;20.45;;
63499;SDS011;49654;51.142;14.924;2023-04-22T00:46:12;28.38;;;19.33;;
63499;SDS011;49654;51.142;14.924;2023-04-22T00:48:50;25.50;;;19.63;;
63499;SDS011;49654;51.142;14.924;2023-04-22T00:51:27;30.42;;;21.15;;
63499;SDS011;49654;51.142;14.924;2023-04-22T00:54:11;28.30;;;21.25;;
63499;SDS011;49654;51.142;14.924;2023-04-22T00:56:49;25.33;;;19.40;;
63499;SDS011;49654;51.142;14.924;2023-04-22T00:59:16;27.42;;;20.48;;
63499;SDS011;49654;51.142;14.924;2023-04-22T01:01:48;27.20;;;20.60;;
63499;SDS011;49654;51.142;14.924;2023-04-22T01:04:15;21.83;;;18.83;;
63499;SDS011;49654;51.142;14.924;2023-04-22T01:06:43;30.15;;;20.25;;
63499;SDS011;49654;51.142;14.924;2023-04-22T01:09:10;28.17;;;21.10;;
63499;SDS011;49654;51.142;14.924;2023-04-22T01:11:37;23.17;;;19.00;;
63499;SDS011;49654;51.142;14.924;2023-04-22T01:14:04;24.25;;;18.58;;
63499;SDS011;49654;51.142;14.924;2023-04-22T01:16:31;21.63;;;18.30;;
63499;SDS011;49654;51.142;14.924;2023-04-22T01:19:01;22.20;;;18.73;;
63499;SDS011;49654;51.142;14.924;2023-04-22T01:21:28;22.00;;;17.95;;
63499;SDS011;49654;51.142;14.924;2023-04-22T01:23:59;25.88;;;19.00;;
63499;SDS011;49654;51.142;14.924;2023-04-22T01:26:27;24.50;;;19.08;;
63499;SDS011;49654;51.142;14.924;2023-04-22T01:28:54;20.05;;;17.27;;
63499;SDS011;49654;51.142;14.924;2023-04-22T01:31:22;22.60;;;18.80;;
63499;SDS011;49654;51.142;14.924;2023-04-22T01:33:49;23.55;;;18.27;;
63499;SDS011;49654;51.142;14.924;2023-04-22T01:36:17;23.25;;;18.58;;
63499;SDS011;49654;51.142;14.924;2023-04-22T01:38:44;23.23;;;18.63;;
63499;SDS011;49654;51.142;14.924;2023-04-22T01:41:12;19.63;;;17.10;;
63499;SDS011;49654;51.142;14.924;2023-04-22T01:43:40;23.13;;;18.13;;
63499;SDS011;49654;51.142;14.924;2023-04-22T01:46:07;21.67;;;17.65;;
63499;SDS011;49654;51.142;14.924;2023-04-22T01:48:34;19.13;;;16.63;;
63499;SDS011;49654;51.142;14.924;2023-04-22T01:51:02;21.83;;;17.40;;
63499;SDS011;49654;51.142;14.924;2023-04-22T01:53:29;21.63;;;17.13;;
63499;SDS011;49654;51.142;14.924;2023-04-22T01:55:56;22.20;;;17.73;;
63499;SDS011;49654;51.142;14.924;2023-04-22T01:58:24;22.80;;;17.52;;
63499;SDS011;49654;51.142;14.924;2023-04-22T02:00:54;20.70;;;16.38;;
63499;SDS011;49654;51.142;14.924;2023-04-22T02:03:21;19.17;;;15.88;;
63499;SDS011;49654;51.142;14.924;2023-04-22T02:05:48;18.17;;;15.35;;
63499;SDS011;49654;51.142;14.924;2023-04-22T02:08:15;19.88;;;16.13;;
63499;SDS011;49654;51.142;14.924;2023-04-22T02:10:42;18.40;;;16.13;;
63499;SDS011;49654;51.142;14.924;2023-04-22T02:13:09;19.45;;;17.05;;
63499;SDS011;49654;51.142;14.924;2023-04-22T02:15:38;21.70;;;17.88;;
63499;SDS011;49654;51.142;14.924;2023-04-22T02:18:05;21.58;;;18.67;;
63499;SDS011;49654;51.142;14.924;2023-04-22T02:20:32;20.70;;;17.88;;
63499;SDS011;49654;51.142;14.924;2023-04-22T02:22:59;20.67;;;17.58;;
63499;SDS011;49654;51.142;14.924;2023-04-22T02:25:27;20.58;;;17.10;;
63499;SDS011;49654;51.142;14.924;2023-04-22T02:27:54;22.48;;;18.10;;
63499;SDS011;49654;51.142;14.924;2023-04-22T02:30:21;20.35;;;17.33;;
63499;SDS011;49654;51.142;14.924;2023-04-22T02:32:49;21.55;;;16.80;;
63499;SDS011;49654;51.142;14.924;2023-04-22T02:35:16;20.73;;;16.90;;
63499;SDS011;49654;51.142;14.924;2023-04-22T02:37:43;21.48;;;17.63;;
63499;SDS011;49654;51.142;14.924;2023-04-22T02:40:10;21.35;;;18.17;;
63499;SDS011;49654;51.142;14.924;2023-04-22T02:42:37;22.20;;;18.00;;
63499;SDS011;49654;51.142;14.924;2023-04-22T02:45:05;22.73;;;18.30;;
63499;SDS011;49654;51.142;14.924;2023-04-22T02:47:32;20.17;;;17.52;;
63499;SDS011;49654;51.142;14.924;2023-04-22T02:50:01;22.73;;;17.27;;
63499;SDS011;49654;51.142;14.924;2023-04-22T02:52:28;24.88;;;18.65;;
63499;SDS011;49654;51.142;14.924;2023-04-22T02:54:55;23.00;;;18.05;;
63499;SDS011;49654;51.142;14.924;2023-04-22T02:57:22;23.98;;;17.33;;
63499;SDS011;49654;51.142;14.924;2023-04-22T02:59:49;21.55;;;17.65;;
63499;SDS011;49654;51.142;14.924;2023-04-22T03:02:15;22.27;;;18.00;;
63499;SDS011;49654;51.142;14.924;2023-04-22T03:04:42;23.05;;;16.63;;
63499;SDS011;49654;51.142;14.924;2023-04-22T03:07:11;23.07;;;17.50;;
63499;SDS011;49654;51.142;14.924;2023-04-22T03:09:38;22.63;;;17.80;;
63499;SDS011;49654;51.142;14.924;2023-04-22T03:12:05;21.00;;;16.77;;
63499;SDS011;49654;51.142;14.924;2023-04-22T03:14:32;22.40;;;17.07;;
63499;SDS011;49654;51.142;14.924;2023-04-22T03:16:59;20.65;;;17.42;;
63499;SDS011;49654;51.142;14.924;2023-04-22T03:19:25;20.23;;;16.42;;
63499;SDS011;49654;51.142;14.924;2023-04-22T03:21:52;19.05;;;15.77;;
63499;SDS011;49654;51.142;14.924;2023-04-22T03:24:22;18.73;;;15.93;;
63499;SDS011;49654;51.142;14.924;2023-04-22T03:26:49;20.88;;;16.08;;
63499;SDS011;49654;51.142;14.924;2023-04-22T03:29:16;22.63;;;16.67;;
63499;SDS011;49654;51.142;14.924;2023-04-22T03:31:43;18.60;;;15.67;;
63499;SDS011;49654;51.142;14.924;2023-04-22T03:34:10;20.05;;;15.70;;
63499;SDS011;49654;51.142;14.924;2023-04-22T03:36:37;21.77;;;16.73;;
63499;SDS011;49654;51.142;14.924;2023-04-22T03:39:04;22.73;;;17.13;;
63499;SDS011;49654;51.142;14.924;2023-04-22T03:41:32;20.97;;;16.60;;
63499;SDS011;49654;51.142;14.924;2023-04-22T03:43:59;18.70;;;15.77;;
63499;SDS011;49654;51.142;14.924;2023-04-22T03:46:26;20.73;;;17.23;;
63499;SDS011;49654;51.142;14.924;2023-04-22T03:48:53;21.90;;;16.20;;
63499;SDS011;49654;51.142;14.924;2023-04-22T03:51:20;20.67;;;15.50;;
63499;SDS011;49654;51.142;14.924;2023-04-22T03:53:47;20.30;;;14.83;;
63499;SDS011;49654;51.142;14.924;2023-04-22T03:56:13;21.73;;;15.33;;
63499;SDS011;49654;51.142;14.924;2023-04-22T03:58:42;20.07;;;15.43;;
63499;SDS011;49654;51.142;14.924;2023-04-22T04:01:09;22.17;;;15.63;;
63499;SDS011;49654;51.142;14.924;2023-04-22T04:03:36;23.80;;;16.67;;
63499;SDS011;49654;51.142;14.924;2023-04-22T04:06:03;24.40;;;17.37;;
63499;SDS011;49654;51.142;14.924;2023-04-22T04:08:30;18.03;;;14.80;;
63499;SDS011;49654;51.142;14.924;2023-04-22T04:10:57;21.33;;;15.75;;
63499;SDS011;49654;51.142;14.924;2023-04-22T04:13:24;19.93;;;16.43;;
63499;SDS011;49654;51.142;14.924;2023-04-22T04:15:52;19.73;;;15.67;;
63499;SDS011;49654;51.142;14.924;2023-04-22T04:18:19;17.77;;;14.77;;
63499;SDS011;49654;51.142;14.924;2023-04-22T04:20:46;15.88;;;13.82;;
63499;SDS011;49654;51.142;14.924;2023-04-22T04:23:13;18.20;;;14.10;;
63499;SDS011;49654;51.142;14.924;2023-04-22T04:25:40;19.20;;;16.17;;
63499;SDS011;49654;51.142;14.924;2023-04-22T04:28:08;19.50;;;15.47;;
63499;SDS011;49654;51.142;14.924;2023-04-22T04:30:36;20.17;;;15.63;;
63499;SDS011;49654;51.142;14.924;2023-04-22T04:33:07;22.03;;;17.37;;
63499;SDS011;49654;51.142;14.924;2023-04-22T04:35:35;20.43;;;16.67;;
63499;SDS011;49654;51.142;14.924;2023-04-22T04:38:03;20.83;;;16.77;;
63499;SDS011;49654;51.142;14.924;2023-04-22T04:40:31;21.73;;;17.87;;
63499;SDS011;49654;51.142;14.924;2023-04-22T04:42:58;20.88;;;17.10;;
63499;SDS011;49654;51.142;14.924;2023-04-22T04:45:27;21.70;;;16.57;;
63499;SDS011;49654;51.142;14.924;2023-04-22T04:47:54;22.80;;;16.55;;
63499;SDS011;49654;51.142;14.924;2023-04-22T04:50:22;21.15;;;17.08;;
63499;SDS011;49654;51.142;14.924;2023-04-22T04:52:52;22.17;;;17.43;;
63499;SDS011;49654;51.142;14.924;2023-04-22T04:55:19;22.13;;;17.30;;
63499;SDS011;49654;51.142;14.924;2023-04-22T04:57:47;22.92;;;17.98;;
63499;SDS011;49654;51.142;14.924;2023-04-22T05:00:14;24.45;;;18.77;;
63499;SDS011;49654;51.142;14.924;2023-04-22T05:02:41;24.90;;;18.00;;
63499;SDS011;49654;51.142;14.924;2023-04-22T05:05:08;22.02;;;18.20;;
63499;SDS011;49654;51.142;14.924;2023-04-22T05:07:37;22.45;;;17.77;;
63499;SDS011;49654;51.142;14.924;2023-04-22T05:10:04;22.60;;;18.33;;
63499;SDS011;49654;51.142;14.924;2023-04-22T05:12:32;23.33;;;18.63;;
63499;SDS011;49654;51.142;14.924;2023-04-22T05:14:59;25.00;;;17.40;;
63499;SDS011;49654;51.142;14.924;2023-04-22T05:17:26;23.75;;;19.17;;
63499;SDS011;49654;51.142;14.924;2023-04-22T05:19:53;23.92;;;18.77;;
63499;SDS011;49654;51.142;14.924;2023-04-22T05:22:20;25.73;;;20.38;;
63499;SDS011;49654;51.142;14.924;2023-04-22T05:24:50;26.23;;;21.50;;
63499;SDS011;49654;51.142;14.924;2023-04-22T05:27:17;29.70;;;21.13;;
63499;SDS011;49654;51.142;14.924;2023-04-22T05:29:44;24.85;;;20.25;;
63499;SDS011;49654;51.142;14.924;2023-04-22T05:32:11;22.70;;;19.15;;
63499;SDS011;49654;51.142;14.924;2023-04-22T05:34:44;25.73;;;19.65;;
63499;SDS011;49654;51.142;14.924;2023-04-22T05:37:11;24.52;;;19.92;;
63499;SDS011;49654;51.142;14.924;2023-04-22T05:39:38;26.23;;;21.40;;
63499;SDS011;49654;51.142;14.924;2023-04-22T05:42:07;27.00;;;21.33;;
63499;SDS011;49654;51.142;14.924;2023-04-22T05:44:34;25.85;;;21.77;;
63499;SDS011;49654;51.142;14.924;2023-04-22T05:47:01;33.95;;;24.85;;
63499;SDS011;49654;51.142;14.924;2023-04-22T05:49:28;31.10;;;24.35;;
63499;SDS011;49654;51.142;14.924;2023-04-22T05:51:55;29.52;;;23.33;;
63499;SDS011;49654;51.142;14.924;2023-04-22T05:54:22;31.15;;;24.38;;
63499;SDS011;49654;51.142;14.924;2023-04-22T05:56:49;32.50;;;25.17;;
63499;SDS011;49654;51.142;14.924;2023-04-22T05:59:17;34.55;;;25.65;;
63499;SDS011;49654;51.142;14.924;2023-04-22T06:01:44;37.22;;;26.67;;
63499;SDS011;49654;51.142;14.924;2023-04-22T06:04:11;38.40;;;28.35;;
63499;SDS011;49654;51.142;14.924;2023-04-22T06:06:38;41.55;;;28.85;;
63499;SDS011;49654;51.142;14.924;2023-04-22T06:09:05;36.80;;;26.67;;
63499;SDS011;49654;51.142;14.924;2023-04-22T06:11:32;35.38;;;26.38;;
63499;SDS011;49654;51.142;14.924;2023-04-22T06:13:59;37.08;;;26.17;;
63499;SDS011;49654;51.142;14.924;2023-04-22T06:16:28;33.50;;;25.15;;
63499;SDS011;49654;51.142;14.924;2023-04-22T06:18:55;30.52;;;23.50;;
63499;SDS011;49654;51.142;14.924;2023-04-22T06:21:22;30.90;;;23.00;;
63499;SDS011;49654;51.142;14.924;2023-04-22T06:23:49;28.05;;;21.50;;
63499;SDS011;49654;51.142;14.924;2023-04-22T06:26:16;27.90;;;21.63;;
63499;SDS011;49654;51.142;14.924;2023-04-22T06:28:43;27.00;;;20.65;;
63499;SDS011;49654;51.142;14.924;2023-04-22T06:31:10;24.48;;;19.33;;
63499;SDS011;49654;51.142;14.924;2023-04-22T06:33:38;24.65;;;19.33;;
63499;SDS011;49654;51.142;14.924;2023-04-22T06:36:05;23.05;;;18.40;;
63499;SDS011;49654;51.142;14.924;2023-04-22T06:38:32;22.23;;;17.65;;
63499;SDS011;49654;51.142;14.924;2023-04-22T06:40:59;20.58;;;16.60;;
63499;SDS011;49654;51.142;14.924;2023-04-22T06:43:26;20.23;;;16.45;;
63499;SDS011;49654;51.142;14.924;2023-04-22T06:45:53;21.85;;;16.05;;
63499;SDS011;49654;51.142;14.924;2023-04-22T06:48:20;19.35;;;15.30;;
63499;SDS011;49654;51.142;14.924;2023-04-22T06:50:48;18.40;;;15.07;;
63499;SDS011;49654;51.142;14.924;2023-04-22T06:53:15;16.75;;;14.15;;
63499;SDS011;49654;51.142;14.924;2023-04-22T06:55:42;16.02;;;13.55;;
63499;SDS011;49654;51.142;14.924;2023-04-22T06:58:09;16.70;;;14.15;;
63499;SDS011;49654;51.142;14.924;2023-04-22T07:00:36;17.30;;;12.93;;
63499;SDS011;49654;51.142;14.924;2023-04-22T07:03:03;15.70;;;12.75;;
63499;SDS011;49654;51.142;14.924;2023-04-22T07:05:30;14.93;;;12.30;;
63499;SDS011;49654;51.142;14.924;2023-04-22T07:07:58;14.25;;;11.40;;
63499;SDS011;49654;51.142;14.924;2023-04-22T07:10:25;12.20;;;10.70;;
63499;SDS011;49654;51.142;14.924;2023-04-22T07:12:52;11.50;;;10.30;;
63499;SDS011;49654;51.142;14.924;2023-04-22T07:15:19;13.45;;;9.27;;
63499;SDS011;49654;51.142;14.924;2023-04-22T07:17:46;10.90;;;8.50;;
63499;SDS011;49654;51.142;14.924;2023-04-22T07:20:13;9.93;;;8.57;;
63499;SDS011;49654;51.142;14.924;2023-04-22T07:22:40;12.05;;;8.30;;
63499;SDS011;49654;51.142;14.924;2023-04-22T07:25:09;8.40;;;7.50;;
63499;SDS011;49654;51.142;14.924;2023-04-22T07:27:36;8.23;;;5.93;;
63499;SDS011;49654;51.142;14.924;2023-04-22T07:30:03;7.22;;;6.05;;
63499;SDS011;49654;51.142;14.924;2023-04-22T07:32:31;9.32;;;6.07;;
63499;SDS011;49654;51.142;14.924;2023-04-22T07:34:59;8.20;;;5.10;;
63499;SDS011;49654;51.142;14.924;2023-04-22T07:37:25;6.68;;;5.53;;
63499;SDS011;49654;51.142;14.924;2023-04-22T07:39:52;9.68;;;5.28;;
63499;SDS011;49654;51.142;14.924;2023-04-22T07:42:21;8.05;;;6.28;;
63499;SDS011;49654;51.142;14.924;2023-04-22T07:44:49;7.20;;;5.25;;
63499;SDS011;49654;51.142;14.924;2023-04-22T07:47:16;8.82;;;5.32;;
63499;SDS011;49654;51.142;14.924;2023-04-22T07:49:43;7.63;;;5.15;;
63499;SDS011;49654;51.142;14.924;2023-04-22T07:52:10;8.05;;;5.50;;
63499;SDS011;49654;51.142;14.924;2023-04-22T07:54:37;7.97;;;5.80;;
63499;SDS011;49654;51.142;14.924;2023-04-22T07:57:04;8.35;;;6.07;;
63499;SDS011;49654;51.142;14.924;2023-04-22T07:59:32;7.25;;;5.72;;
63499;SDS011;49654;51.142;14.924;2023-04-22T08:01:59;7.28;;;5.57;;
63499;SDS011;49654;51.142;14.924;2023-04-22T08:04:26;12.07;;;6.30;;
63499;SDS011;49654;51.142;14.924;2023-04-22T08:06:53;7.43;;;6.00;;
63499;SDS011;49654;51.142;14.924;2023-04-22T08:09:20;7.55;;;5.85;;
63499;SDS011;49654;51.142;14.924;2023-04-22T08:11:47;6.32;;;5.45;;
63499;SDS011;49654;51.142;14.924;2023-04-22T08:14:14;9.98;;;6.40;;
63499;SDS011;49654;51.142;14.924;2023-04-22T08:16:42;8.98;;;6.38;;
63499;SDS011;49654;51.142;14.924;2023-04-22T08:19:09;10.98;;;5.82;;
63499;SDS011;49654;51.142;14.924;2023-04-22T08:21:36;7.80;;;6.07;;
63499;SDS011;49654;51.142;14.924;2023-04-22T08:24:03;7.18;;;6.05;;
63499;SDS011;49654;51.142;14.924;2023-04-22T08:26:30;8.20;;;6.25;;
63499;SDS011;49654;51.142;14.924;2023-04-22T08:28:57;7.47;;;5.82;;
63499;SDS011;49654;51.142;14.924;2023-04-22T08:31:24;10.52;;;6.30;;
63499;SDS011;49654;51.142;14.924;2023-04-22T08:33:52;6.75;;;5.85;;
63499;SDS011;49654;51.142;14.924;2023-04-22T08:36:19;7.22;;;6.07;;
63499;SDS011;49654;51.142;14.924;2023-04-22T08:38:47;10.00;;;6.10;;
63499;SDS011;49654;51.142;14.924;2023-04-22T08:41:14;12.55;;;6.30;;
63499;SDS011;49654;51.142;14.924;2023-04-22T08:43:44;8.70;;;6.35;;
63499;SDS011;49654;51.142;14.924;2023-04-22T08:46:11;9.38;;;6.32;;
63499;SDS011;49654;51.142;14.924;2023-04-22T08:48:40;8.07;;;6.13;;
63499;SDS011;49654;51.142;14.924;2023-04-22T08:51:08;8.80;;;6.00;;
63499;SDS011;49654;51.142;14.924;2023-04-22T08:53:36;9.70;;;6.35;;
63499;SDS011;49654;51.142;14.924;2023-04-22T08:56:03;9.52;;;5.82;;
63499;SDS011;49654;51.142;14.924;2023-04-22T08:58:31;8.68;;;6.03;;
63499;SDS011;49654;51.142;14.924;2023-04-22T09:00:59;9.65;;;6.15;;
63499;SDS011;49654;51.142;14.924;2023-04-22T09:03:27;7.28;;;5.82;;
63499;SDS011;49654;51.142;14.924;2023-04-22T09:05:55;11.07;;;6.68;;
63499;SDS011;49654;51.142;14.924;2023-04-22T09:08:24;8.13;;;6.15;;
63499;SDS011;49654;51.142;14.924;2023-04-22T09:10:52;9.38;;;6.30;;
63499;SDS011;49654;51.142;14.924;2023-04-22T09:13:19;9.32;;;6.30;;
63499;SDS011;49654;51.142;14.924;2023-04-22T09:15:47;9.05;;;6.40;;
63499;SDS011;49654;51.142;14.924;2023-04-22T09:18:15;9.07;;;6.03;;
63499;SDS011;49654;51.142;14.924;2023-04-22T09:20:43;9.88;;;6.05;;
63499;SDS011;49654;51.142;14.924;2023-04-22T09:23:12;8.00;;;6.25;;
63499;SDS011;49654;51.142;14.924;2023-04-22T09:25:40;8.68;;;6.20;;
63499;SDS011;49654;51.142;14.924;2023-04-22T09:28:10;12.30;;;6.75;;
63499;SDS011;49654;51.142;14.924;2023-04-22T09:30:38;9.65;;;6.57;;
63499;SDS011;49654;51.142;14.924;2023-04-22T09:33:05;8.45;;;6.20;;
63499;SDS011;49654;51.142;14.924;2023-04-22T09:35:33;9.15;;;6.45;;
63499;SDS011;49654;51.142;14.924;2023-04-22T09:38:02;8.85;;;5.55;;
63499;SDS011;49654;51.142;14.924;2023-04-22T09:40:30;6.47;;;5.43;;
63499;SDS011;49654;51.142;14.924;2023-04-22T09:43:00;9.75;;;5.97;;
63499;SDS011;49654;51.142;14.924;2023-04-22T09:45:29;8.25;;;5.85;;
63499;SDS011;49654;51.142;14.924;2023-04-22T09:47:59;6.10;;;5.45;;
63499;SDS011;49654;51.142;14.924;2023-04-22T09:50:28;8.90;;;5.82;;
63499;SDS011;49654;51.142;14.924;2023-04-22T09:52:57;8.55;;;5.43;;
63499;SDS011;49654;51.142;14.924;2023-04-22T09:55:26;7.38;;;5.30;;
63499;SDS011;49654;51.142;14.924;2023-04-22T09:57:55;7.72;;;5.53;;
63499;SDS011;49654;51.142;14.924;2023-04-22T10:00:27;7.25;;;5.80;;
63499;SDS011;49654;51.142;14.924;2023-04-22T10:02:55;8.70;;;6.50;;
63499;SDS011;49654;51.142;14.924;2023-04-22T10:05:22;7.55;;;6.20;;
63499;SDS011;49654;51.142;14.924;2023-04-22T10:07:50;8.68;;;6.72;;
63499;SDS011;49654;51.142;14.924;2023-04-22T10:10:17;10.13;;;7.03;;
63499;SDS011;49654;51.142;14.924;2023-04-22T10:12:44;12.40;;;6.45;;
63499;SDS011;49654;51.142;14.924;2023-04-22T10:15:12;9.07;;;5.93;;
63499;SDS011;49654;51.142;14.924;2023-04-22T10:17:41;10.25;;;6.90;;
63499;SDS011;49654;51.142;14.924;2023-04-22T10:20:10;12.80;;;6.85;;
63499;SDS011;49654;51.142;14.924;2023-04-22T10:22:41;9.07;;;6.60;;
63499;SDS011;49654;51.142;14.924;2023-04-22T10:25:12;7.53;;;6.55;;
63499;SDS011;49654;51.142;14.924;2023-04-22T10:27:51;9.75;;;6.35;;
63499;SDS011;49654;51.142;14.924;2023-04-22T10:30:25;8.38;;;5.20;;
63499;SDS011;49654;51.142;14.924;2023-04-22T10:32:54;7.68;;;5.40;;
63499;SDS011;49654;51.142;14.924;2023-04-22T10:35:25;9.35;;;5.78;;
63499;SDS011;49654;51.142;14.924;2023-04-22T10:37:53;7.78;;;4.93;;
63499;SDS011;49654;51.142;14.924;2023-04-22T10:40:20;7.38;;;5.30;;
63499;SDS011;49654;51.142;14.924;2023-04-22T10:42:49;8.93;;;5.30;;
63499;SDS011;49654;51.142;14.924;2023-04-22T10:45:17;9.05;;;5.93;;
63499;SDS011;49654;51.142;14.924;2023-04-22T10:47:49;7.03;;;5.45;;
63499;SDS011;49654;51.142;14.924;2023-04-22T10:50:19;9.07;;;5.30;;
63499;SDS011;49654;51.142;14.924;2023-04-22T10:52:49;7.82;;;5.55;;
63499;SDS011;49654;51.142;14.924;2023-04-22T10:55:17;8.25;;;5.20;;
63499;SDS011;49654;51.142;14.924;2023-04-22T10:57:45;7.88;;;5.10;;
63499;SDS011;49654;51.142;14.924;2023-04-22T11:03:12;7.93;;;5.07;;
63499;SDS011;49654;51.142;14.924;2023-04-22T11:05:43;8.13;;;5.28;;
63499;SDS011;49654;51.142;14.924;2023-04-22T11:08:11;7.70;;;5.40;;
63499;SDS011;49654;51.142;14.924;2023-04-22T11:10:46;8.27;;;5.30;;
63499;SDS011;49654;51.142;14.924;2023-04-22T11:13:14;7.90;;;6.00;;
63499;SDS011;49654;51.142;14.924;2023-04-22T11:15:44;10.65;;;5.05;;
63499;SDS011;49654;51.142;14.924;2023-04-22T11:18:13;9.73;;;5.80;;
63499;SDS011;49654;51.142;14.924;2023-04-22T11:20:47;6.70;;;4.95;;
63499;SDS011;49654;51.142;14.924;2023-04-22T11:23:18;6.53;;;5.10;;
63499;SDS011;49654;51.142;14.924;2023-04-22T11:25:52;7.95;;;4.93;;
63499;SDS011;49654;51.142;14.924;2023-04-22T11:28:19;7.90;;;4.93;;
63499;SDS011;49654;51.142;14.924;2023-04-22T11:30:47;8.07;;;5.13;;
63499;SDS011;49654;51.142;14.924;2023-04-22T11:33:14;7.13;;;4.80;;
63499;SDS011;49654;51.142;14.924;2023-04-22T11:35:42;6.38;;;4.82;;
63499;SDS011;49654;51.142;14.924;2023-04-22T11:38:10;6.07;;;4.65;;
63499;SDS011;49654;51.142;14.924;2023-04-22T11:40:38;6.70;;;4.80;;
63499;SDS011;49654;51.142;14.924;2023-04-22T11:43:10;5.88;;;4.60;;
63499;SDS011;49654;51.142;14.924;2023-04-22T11:45:37;6.18;;;4.65;;
63499;SDS011;49654;51.142;14.924;2023-04-22T11:48:06;6.60;;;4.82;;
63499;SDS011;49654;51.142;14.924;2023-04-22T11:50:34;6.20;;;4.65;;
63499;SDS011;49654;51.142;14.924;2023-04-22T11:53:03;6.20;;;4.80;;
63499;SDS011;49654;51.142;14.924;2023-04-22T11:55:39;6.47;;;5.10;;
63499;SDS011;49654;51.142;14.924;2023-04-22T11:58:07;8.05;;;4.72;;
63499;SDS011;49654;51.142;14.924;2023-04-22T12:00:37;7.57;;;4.70;;
63499;SDS011;49654;51.142;14.924;2023-04-22T12:03:07;7.70;;;4.97;;
63499;SDS011;49654;51.142;14.924;2023-04-22T12:05:39;7.10;;;5.00;;
63499;SDS011;49654;51.142;14.924;2023-04-22T12:08:08;5.47;;;4.38;;
63499;SDS011;49654;51.142;14.924;2023-04-22T12:10:38;6.18;;;4.65;;
63499;SDS011;49654;51.142;14.924;2023-04-22T12:13:07;5.18;;;4.63;;
63499;SDS011;49654;51.142;14.924;2023-04-22T12:15:37;6.78;;;5.15;;
63499;SDS011;49654;51.142;14.924;2023-04-22T12:18:08;5.05;;;4.53;;
63499;SDS011;49654;51.142;14.924;2023-04-22T12:20:37;5.68;;;4.57;;
63499;SDS011;49654;51.142;14.924;2023-04-22T12:23:10;6.63;;;4.75;;
63499;SDS011;49654;51.142;14.924;2023-04-22T12:25:38;6.13;;;4.50;;
63499;SDS011;49654;51.142;14.924;2023-04-22T12:28:06;5.40;;;4.47;;
63499;SDS011;49654;51.142;14.924;2023-04-22T12:30:33;9.35;;;5.70;;
63499;SDS011;49654;51.142;14.924;2023-04-22T12:33:00;6.65;;;4.80;;
63499;SDS011;49654;51.142;14.924;2023-04-22T12:35:27;5.95;;;4.50;;
63499;SDS011;49654;51.142;14.924;2023-04-22T12:37:54;8.02;;;4.43;;
63499;SDS011;49654;51.142;14.924;2023-04-22T12:40:21;7.53;;;4.95;;
63499;SDS011;49654;51.142;14.924;2023-04-22T12:42:48;5.82;;;4.43;;
63499;SDS011;49654;51.142;14.924;2023-04-22T12:45:16;6.03;;;4.38;;
63499;SDS011;49654;51.142;14.924;2023-04-22T12:47:43;11.75;;;4.72;;
63499;SDS011;49654;51.142;14.924;2023-04-22T12:50:11;8.45;;;4.70;;
63499;SDS011;49654;51.142;14.924;2023-04-22T12:52:38;9.52;;;4.20;;
63499;SDS011;49654;51.142;14.924;2023-04-22T12:55:05;4.93;;;4.43;;
63499;SDS011;49654;51.142;14.924;2023-04-22T12:57:33;5.70;;;4.60;;
63499;SDS011;49654;51.142;14.924;2023-04-22T13:00:00;8.13;;;4.90;;
63499;SDS011;49654;51.142;14.924;2023-04-22T13:02:30;7.18;;;4.38;;
63499;SDS011;49654;51.142;14.924;2023-04-22T13:04:57;6.10;;;4.30;;
63499;SDS011;49654;51.142;14.924;2023-04-22T13:07:24;8.93;;;4.63;;
63499;SDS011;49654;51.142;14.924;2023-04-22T13:09:51;5.25;;;4.57;;
63499;SDS011;49654;51.142;14.924;2023-04-22T13:12:17;5.95;;;4.63;;
63499;SDS011;49654;51.142;14.924;2023-04-22T13:14:45;6.13;;;4.30;;
63499;SDS011;49654;51.142;14.924;2023-04-22T13:17:11;4.88;;;4.13;;
63499;SDS011;49654;51.142;14.924;2023-04-22T13:19:40;5.50;;;4.47;;
63499;SDS011;49654;51.142;14.924;2023-04-22T13:22:07;6.78;;;4.50;;
63499;SDS011;49654;51.142;14.924;2023-04-22T13:24:33;10.25;;;5.20;;
63499;SDS011;49654;51.142;14.924;2023-04-22T13:27:00;6.60;;;4.60;;
63499;SDS011;49654;51.142;14.924;2023-04-22T13:29:28;7.70;;;4.80;;
63499;SDS011;49654;51.142;14.924;2023-04-22T13:31:55;6.82;;;4.82;;
63499;SDS011;49654;51.142;14.924;2023-04-22T13:34:22;9.50;;;4.57;;
63499;SDS011;49654;51.142;14.924;2023-04-22T13:36:50;7.85;;;4.80;;
63499;SDS011;49654;51.142;14.924;2023-04-22T13:39:17;5.43;;;4.30;;
63499;SDS011;49654;51.142;14.924;2023-04-22T13:41:44;5.50;;;4.60;;
63499;SDS011;49654;51.142;14.924;2023-04-22T13:44:11;5.28;;;3.90;;
63499;SDS011;49654;51.142;14.924;2023-04-22T13:46:39;8.82;;;4.47;;
63499;SDS011;49654;51.142;14.924;2023-04-22T13:49:07;6.97;;;3.80;;
63499;SDS011;49654;51.142;14.924;2023-04-22T13:51:34;5.78;;;4.25;;
63499;SDS011;49654;51.142;14.924;2023-04-22T13:54:03;5.88;;;4.13;;
63499;SDS011;49654;51.142;14.924;2023-04-22T13:56:30;6.32;;;4.65;;
63499;SDS011;49654;51.142;14.924;2023-04-22T13:58:58;4.72;;;4.22;;
63499;SDS011;49654;51.142;14.924;2023-04-22T14:01:25;4.38;;;3.95;;
63499;SDS011;49654;51.142;14.924;2023-04-22T14:03:52;6.65;;;4.45;;
63499;SDS011;49654;51.142;14.924;2023-04-22T14:06:20;5.03;;;4.20;;
63499;SDS011;49654;51.142;14.924;2023-04-22T14:08:47;6.90;;;4.40;;
63499;SDS011;49654;51.142;14.924;2023-04-22T14:11:16;7.75;;;4.43;;
63499;SDS011;49654;51.142;14.924;2023-04-22T14:13:42;6.40;;;4.13;;
63499;SDS011;49654;51.142;14.924;2023-04-22T14:16:11;9.00;;;4.60;;
63499;SDS011;49654;51.142;14.924;2023-04-22T14:18:38;6.97;;;5.15;;
63499;SDS011;49654;51.142;14.924;2023-04-22T14:21:06;6.78;;;4.60;;
63499;SDS011;49654;51.142;14.924;2023-04-22T14:23:35;6.15;;;4.72;;
63499;SDS011;49654;51.142;14.924;2023-04-22T14:26:02;7.38;;;4.60;;
63499;SDS011;49654;51.142;14.924;2023-04-22T14:28:31;5.07;;;4.25;;